sensor_id;sensor_type;location;lat;lon;timestamp;pressure;altitude;pressure_sealevel;temperature;humidity
55610;BME280;41486;52.502;13.486;2024-03-29T00:00:50;99274.84;;;8.82;100.00
55610;BME280;41486;52.502;13.486;2024-03-29T00:03:16;99278.56;;;8.80;100.00
55610;BME280;41486;52.502;13.486;2024-03-29T00:05:42;99284.63;;;8.80;100.00
55610;BME280;41486;52.502;13.486;2024-03-29T00:08:08;99292.09;;;8.75;100.00
55610;BME280;41486;52.502;13.486;2024-03-29T00:10:35;99289.59;;;8.74;100.00
55610;BME280;41486;52.502;13.486;2024-03-29T00:13:01;99294.59;;;8.77;100.00
55610;BME280;41486;52.502;13.486;2024-03-29T00:15:28;99289.19;;;8.78;100.00
55610;BME280;41486;52.502;13.486;2024-03-29T00:17:55;99295.13;;;8.80;100.00
55610;BME280;41486;52.502;13.486;2024-03-29T00:20:21;99289.06;;;8.90;100.00
55610;BME280;41486;52.502;13.486;2024-03-29T00:22:47;99292.91;;;8.86;100.00
55610;BME280;41486;52.502;13.486;2024-03-29T00:25:13;99298.72;;;8.99;100.00
55610;BME280;41486;52.502;13.486;2024-03-29T00:27:39;99305.63;;;9.00;100.00
55610;BME280;41486;52.502;13.486;2024-03-29T00:30:06;99307.81;;;9.05;100.00
55610;BME280;41486;52.502;13.486;2024-03-29T00:32:34;99306.41;;;9.10;100.00
55610;BME280;41486;52.502;13.486;2024-03-29T00:35:00;99309.03;;;9.20;100.00
55610;BME280;41486;52.502;13.486;2024-03-29T00:37:26;99315.94;;;9.11;100.00
55610;BME280;41486;52.502;13.486;2024-03-29T00:39:53;99317.31;;;9.25;98.99
55610;BME280;41486;52.502;13.486;2024-03-29T00:42:19;99331.28;;;9.16;100.00
55610;BME280;41486;52.502;13.486;2024-03-29T00:44:45;99339.44;;;9.03;100.00
55610;BME280;41486;52.502;13.486;2024-03-29T00:47:11;99336.44;;;8.88;100.00
55610;BME280;41486;52.502;13.486;2024-03-29T00:49:39;99345.94;;;8.79;100.00
55610;BME280;41486;52.502;13.486;2024-03-29T00:52:06;99346.91;;;8.59;100.00
55610;BME280;41486;52.502;13.486;2024-03-29T00:54:32;99351.44;;;8.47;100.00
55610;BME280;41486;52.502;13.486;2024-03-29T00:56:58;99348.19;;;8.33;100.00
55610;BME280;41486;52.502;13.486;2024-03-29T00:59:24;99343.63;;;8.26;100.00
55610;BME280;41486;52.502;13.486;2024-03-29T01:01:50;99345.84;;;8.20;100.00
55610;BME280;41486;52.502;13.486;2024-03-29T01:04:17;99340.53;;;8.01;100.00
55610;BME280;41486;52.502;13.486;2024-03-29T01:06:44;99341.31;;;7.92;100.00
55610;BME280;41486;52.502;13.486;2024-03-29T01:09:10;99338.88;;;8.00;100.00
55610;BME280;41486;52.502;13.486;2024-03-29T01:11:37;99335.44;;;7.68;100.00
55610;BME280;41486;52.502;13.486;2024-03-29T01:14:04;99326.84;;;7.56;100.00
55610;BME280;41486;52.502;13.486;2024-03-29T01:16:30;99327.06;;;7.74;100.00
55610;BME280;41486;52.502;13.486;2024-03-29T01:18:57;99329.13;;;7.71;100.00
55610;BME280;41486;52.502;13.486;2024-03-29T01:21:23;99328.94;;;7.63;100.00
55610;BME280;41486;52.502;13.486;2024-03-29T01:23:51;99330.72;;;7.62;100.00
55610;BME280;41486;52.502;13.486;2024-03-29T01:26:17;99335.53;;;7.36;100.00
55610;BME280;41486;52.502;13.486;2024-03-29T01:28:43;99342.19;;;7.40;100.00
55610;BME280;41486;52.502;13.486;2024-03-29T01:31:09;99338.16;;;7.36;100.00
55610;BME280;41486;52.502;13.486;2024-03-29T01:33:38;99340.97;;;7.44;100.00
55610;BME280;41486;52.502;13.486;2024-03-29T01:36:05;99339.13;;;7.35;100.00
55610;BME280;41486;52.502;13.486;2024-03-29T01:38:31;99340.47;;;7.08;100.00
55610;BME280;41486;52.502;13.486;2024-03-29T01:40:59;99349.72;;;7.12;100.00
55610;BME280;41486;52.502;13.486;2024-03-29T01:43:25;99341.09;;;7.21;100.00
55610;BME280;41486;52.502;13.486;2024-03-29T01:45:54;99338.81;;;7.28;100.00
55610;BME280;41486;52.502;13.486;2024-03-29T01:48:23;99343.78;;;7.31;100.00
55610;BME280;41486;52.502;13.486;2024-03-29T01:50:56;99341.53;;;7.26;100.00
55610;BME280;41486;52.502;13.486;2024-03-29T01:53:24;99338.88;;;7.17;100.00
55610;BME280;41486;52.502;13.486;2024-03-29T01:55:51;99338.09;;;7.05;100.00
55610;BME280;41486;52.502;13.486;2024-03-29T01:58:20;99336.31;;;7.05;100.00
55610;BME280;41486;52.502;13.486;2024-03-29T02:00:51;99340.06;;;6.91;100.00
55610;BME280;41486;52.502;13.486;2024-03-29T02:03:19;99335.53;;;6.93;100.00
55610;BME280;41486;52.502;13.486;2024-03-29T02:05:47;99341.34;;;6.97;100.00
55610;BME280;41486;52.502;13.486;2024-03-29T02:08:14;99348.91;;;6.79;100.00
55610;BME280;41486;52.502;13.486;2024-03-29T02:10:42;99350.78;;;6.88;100.00
55610;BME280;41486;52.502;13.486;2024-03-29T02:13:09;99341.41;;;6.86;100.00
55610;BME280;41486;52.502;13.486;2024-03-29T02:15:39;99347.63;;;6.73;100.00
55610;BME280;41486;52.502;13.486;2024-03-29T02:18:06;99349.91;;;6.67;100.00
55610;BME280;41486;52.502;13.486;2024-03-29T02:20:34;99352.84;;;6.73;100.00
55610;BME280;41486;52.502;13.486;2024-03-29T02:23:08;99346.66;;;6.74;100.00
55610;BME280;41486;52.502;13.486;2024-03-29T02:25:37;99354.88;;;6.70;100.00
55610;BME280;41486;52.502;13.486;2024-03-29T02:28:05;99349.91;;;6.67;100.00
55610;BME280;41486;52.502;13.486;2024-03-29T02:30:33;99352.97;;;6.72;100.00
55610;BME280;41486;52.502;13.486;2024-03-29T02:33:00;99355.72;;;6.70;100.00
55610;BME280;41486;52.502;13.486;2024-03-29T02:35:28;99364.16;;;6.62;100.00
55610;BME280;41486;52.502;13.486;2024-03-29T02:37:58;99362.28;;;6.65;100.00
55610;BME280;41486;52.502;13.486;2024-03-29T02:40:26;99364.31;;;6.61;100.00
55610;BME280;41486;52.502;13.486;2024-03-29T02:42:54;99375.84;;;6.58;100.00
55610;BME280;41486;52.502;13.486;2024-03-29T02:45:23;99372.97;;;6.61;100.00
55610;BME280;41486;52.502;13.486;2024-03-29T02:47:51;99375.78;;;6.70;100.00
55610;BME280;41486;52.502;13.486;2024-03-29T02:50:17;99374.59;;;6.74;100.00
55610;BME280;41486;52.502;13.486;2024-03-29T02:52:44;99374.53;;;6.53;100.00
55610;BME280;41486;52.502;13.486;2024-03-29T02:55:10;99379.75;;;6.64;100.00
55610;BME280;41486;52.502;13.486;2024-03-29T02:57:39;99371.78;;;6.54;100.00
55610;BME280;41486;52.502;13.486;2024-03-29T03:00:08;99368.72;;;6.60;100.00
55610;BME280;41486;52.502;13.486;2024-03-29T03:02:37;99364.22;;;6.40;100.00
55610;BME280;41486;52.502;13.486;2024-03-29T03:05:04;99370.19;;;6.30;100.00
55610;BME280;41486;52.502;13.486;2024-03-29T03:07:34;99366.50;;;6.33;100.00
55610;BME280;41486;52.502;13.486;2024-03-29T03:10:18;99384.41;;;6.49;100.00
55610;BME280;41486;52.502;13.486;2024-03-29T03:13:03;99388.09;;;6.46;100.00
55610;BME280;41486;52.502;13.486;2024-03-29T03:15:32;99395.47;;;6.41;100.00
55610;BME280;41486;52.502;13.486;2024-03-29T03:17:59;99399.16;;;6.39;100.00
55610;BME280;41486;52.502;13.486;2024-03-29T03:20:26;99399.50;;;6.34;100.00
55610;BME280;41486;52.502;13.486;2024-03-29T03:22:56;99397.84;;;6.33;100.00
55610;BME280;41486;52.502;13.486;2024-03-29T03:25:24;99393.38;;;6.24;100.00
55610;BME280;41486;52.502;13.486;2024-03-29T03:27:53;99390.63;;;6.25;100.00
55610;BME280;41486;52.502;13.486;2024-03-29T03:30:21;99397.66;;;6.13;100.00
55610;BME280;41486;52.502;13.486;2024-03-29T03:32:49;99407.13;;;6.03;100.00
55610;BME280;41486;52.502;13.486;2024-03-29T03:35:17;99409.63;;;6.16;100.00
55610;BME280;41486;52.502;13.486;2024-03-29T03:37:43;99421.63;;;6.07;100.00
55610;BME280;41486;52.502;13.486;2024-03-29T03:40:10;99420.09;;;6.05;100.00
55610;BME280;41486;52.502;13.486;2024-03-29T03:42:36;99423.06;;;6.00;100.00
55610;BME280;41486;52.502;13.486;2024-03-29T03:45:04;99424.13;;;6.09;100.00
55610;BME280;41486;52.502;13.486;2024-03-29T03:47:30;99414.25;;;6.12;100.00
55610;BME280;41486;52.502;13.486;2024-03-29T03:49:59;99424.34;;;6.06;100.00
55610;BME280;41486;52.502;13.486;2024-03-29T03:52:25;99415.34;;;6.10;100.00
55610;BME280;41486;52.502;13.486;2024-03-29T03:54:52;99418.78;;;5.99;100.00
55610;BME280;41486;52.502;13.486;2024-03-29T03:57:18;99412.09;;;5.95;100.00
55610;BME280;41486;52.502;13.486;2024-03-29T03:59:45;99401.53;;;5.96;100.00
55610;BME280;41486;52.502;13.486;2024-03-29T04:02:14;99392.91;;;6.07;100.00
55610;BME280;41486;52.502;13.486;2024-03-29T04:04:42;99388.13;;;6.01;100.00
55610;BME280;41486;52.502;13.486;2024-03-29T04:07:09;99392.41;;;5.91;100.00
55610;BME280;41486;52.502;13.486;2024-03-29T04:09:36;99390.25;;;5.84;100.00
55610;BME280;41486;52.502;13.486;2024-03-29T04:12:03;99386.09;;;5.82;100.00
55610;BME280;41486;52.502;13.486;2024-03-29T04:14:30;99389.03;;;5.77;100.00
55610;BME280;41486;52.502;13.486;2024-03-29T04:16:56;99400.22;;;5.68;100.00
55610;BME280;41486;52.502;13.486;2024-03-29T04:19:23;99390.59;;;5.68;100.00
55610;BME280;41486;52.502;13.486;2024-03-29T04:21:50;99394.38;;;5.76;100.00
55610;BME280;41486;52.502;13.486;2024-03-29T04:24:18;99391.06;;;5.62;100.00
55610;BME280;41486;52.502;13.486;2024-03-29T04:26:44;99402.19;;;5.53;100.00
55610;BME280;41486;52.502;13.486;2024-03-29T04:29:13;99403.97;;;5.64;100.00
55610;BME280;41486;52.502;13.486;2024-03-29T04:31:40;99403.50;;;5.59;100.00
55610;BME280;41486;52.502;13.486;2024-03-29T04:34:07;99406.00;;;5.60;100.00
55610;BME280;41486;52.502;13.486;2024-03-29T04:36:33;99397.81;;;5.65;100.00
55610;BME280;41486;52.502;13.486;2024-03-29T04:39:00;99387.47;;;5.52;100.00
55610;BME280;41486;52.502;13.486;2024-03-29T04:41:29;99381.66;;;5.48;100.00
55610;BME280;41486;52.502;13.486;2024-03-29T04:44:00;99391.75;;;5.53;100.00
55610;BME280;41486;52.502;13.486;2024-03-29T04:46:29;99397.78;;;5.53;100.00
55610;BME280;41486;52.502;13.486;2024-03-29T04:48:57;99401.13;;;5.56;100.00
55610;BME280;41486;52.502;13.486;2024-03-29T04:51:24;99396.28;;;5.74;100.00
55610;BME280;41486;52.502;13.486;2024-03-29T04:53:51;99390.22;;;5.62;100.00
55610;BME280;41486;52.502;13.486;2024-03-29T04:56:18;99382.28;;;5.75;100.00
55610;BME280;41486;52.502;13.486;2024-03-29T04:58:47;99397.59;;;5.68;100.00
55610;BME280;41486;52.502;13.486;2024-03-29T05:01:14;99405.19;;;5.82;100.00
55610;BME280;41486;52.502;13.486;2024-03-29T05:03:41;99399.25;;;5.80;100.00
55610;BME280;41486;52.502;13.486;2024-03-29T05:06:08;99388.81;;;5.80;100.00
55610;BME280;41486;52.502;13.486;2024-03-29T05:08:35;99379.06;;;5.71;100.00
55610;BME280;41486;52.502;13.486;2024-03-29T05:11:03;99394.88;;;5.69;100.00
55610;BME280;41486;52.502;13.486;2024-03-29T05:13:33;99413.03;;;5.82;100.00
55610;BME280;41486;52.502;13.486;2024-03-29T05:16:02;99408.16;;;5.89;100.00
55610;BME280;41486;52.502;13.486;2024-03-29T05:18:32;99409.56;;;5.82;100.00
55610;BME280;41486;52.502;13.486;2024-03-29T05:20:59;99400.06;;;5.81;100.00
55610;BME280;41486;52.502;13.486;2024-03-29T05:23:26;99402.47;;;5.95;100.00
55610;BME280;41486;52.502;13.486;2024-03-29T05:25:53;99404.84;;;5.87;100.00
55610;BME280;41486;52.502;13.486;2024-03-29T05:28:21;99404.59;;;5.90;100.00
55610;BME280;41486;52.502;13.486;2024-03-29T05:30:48;99412.25;;;6.16;100.00
55610;BME280;41486;52.502;13.486;2024-03-29T05:33:17;99410.47;;;6.05;100.00
55610;BME280;41486;52.502;13.486;2024-03-29T05:35:44;99413.66;;;6.09;100.00
55610;BME280;41486;52.502;13.486;2024-03-29T05:38:11;99424.47;;;6.15;100.00
55610;BME280;41486;52.502;13.486;2024-03-29T05:40:39;99428.03;;;6.14;100.00
55610;BME280;41486;52.502;13.486;2024-03-29T05:43:06;99411.78;;;6.11;100.00
55610;BME280;41486;52.502;13.486;2024-03-29T05:45:33;99408.81;;;6.04;100.00
55610;BME280;41486;52.502;13.486;2024-03-29T05:48:00;99399.78;;;6.20;100.00
55610;BME280;41486;52.502;13.486;2024-03-29T05:50:29;99398.81;;;6.21;100.00
55610;BME280;41486;52.502;13.486;2024-03-29T05:52:56;99403.22;;;6.20;100.00
55610;BME280;41486;52.502;13.486;2024-03-29T05:55:25;99406.53;;;6.22;100.00
55610;BME280;41486;52.502;13.486;2024-03-29T05:57:52;99411.75;;;6.34;100.00
55610;BME280;41486;52.502;13.486;2024-03-29T06:00:19;99415.31;;;6.32;100.00
55610;BME280;41486;52.502;13.486;2024-03-29T06:02:47;99423.53;;;6.39;100.00
55610;BME280;41486;52.502;13.486;2024-03-29T06:05:14;99425.28;;;6.50;100.00
55610;BME280;41486;52.502;13.486;2024-03-29T06:07:43;99415.28;;;6.55;100.00
55610;BME280;41486;52.502;13.486;2024-03-29T06:10:13;99425.72;;;6.67;100.00
55610;BME280;41486;52.502;13.486;2024-03-29T06:12:40;99425.38;;;6.71;100.00
55610;BME280;41486;52.502;13.486;2024-03-29T06:15:08;99430.47;;;6.73;100.00
55610;BME280;41486;52.502;13.486;2024-03-29T06:17:52;99444.34;;;6.85;100.00
55610;BME280;41486;52.502;13.486;2024-03-29T06:20:22;99442.97;;;7.02;100.00
55610;BME280;41486;52.502;13.486;2024-03-29T06:22:51;99441.69;;;6.96;100.00
55610;BME280;41486;52.502;13.486;2024-03-29T06:25:21;99450.22;;;6.98;100.00
55610;BME280;41486;52.502;13.486;2024-03-29T06:27:49;99440.41;;;7.23;100.00
55610;BME280;41486;52.502;13.486;2024-03-29T06:30:16;99451.88;;;7.10;100.00
55610;BME280;41486;52.502;13.486;2024-03-29T06:32:43;99459.59;;;7.12;100.00
55610;BME280;41486;52.502;13.486;2024-03-29T06:35:11;99464.28;;;7.30;100.00
55610;BME280;41486;52.502;13.486;2024-03-29T06:37:39;99458.63;;;7.13;100.00
55610;BME280;41486;52.502;13.486;2024-03-29T06:40:10;99465.19;;;7.40;100.00
55610;BME280;41486;52.502;13.486;2024-03-29T06:42:38;99465.56;;;7.35;100.00
55610;BME280;41486;52.502;13.486;2024-03-29T06:45:05;99460.91;;;7.39;100.00
55610;BME280;41486;52.502;13.486;2024-03-29T06:47:33;99466.47;;;7.46;100.00
55610;BME280;41486;52.502;13.486;2024-03-29T06:50:00;99461.38;;;7.65;100.00
55610;BME280;41486;52.502;13.486;2024-03-29T06:52:27;99475.66;;;7.61;100.00
55610;BME280;41486;52.502;13.486;2024-03-29T06:54:54;99488.94;;;7.69;100.00
55610;BME280;41486;52.502;13.486;2024-03-29T06:57:23;99483.91;;;7.78;100.00
55610;BME280;41486;52.502;13.486;2024-03-29T06:59:51;99494.00;;;8.03;100.00
55610;BME280;41486;52.502;13.486;2024-03-29T07:02:19;99493.44;;;8.00;100.00
55610;BME280;41486;52.502;13.486;2024-03-29T07:04:46;99504.94;;;8.09;100.00
55610;BME280;41486;52.502;13.486;2024-03-29T07:07:13;99501.22;;;8.11;100.00
55610;BME280;41486;52.502;13.486;2024-03-29T07:09:40;99484.56;;;8.12;100.00
55610;BME280;41486;52.502;13.486;2024-03-29T07:12:07;99481.25;;;8.20;100.00
55610;BME280;41486;52.502;13.486;2024-03-29T07:14:36;99475.00;;;8.32;100.00
55610;BME280;41486;52.502;13.486;2024-03-29T07:17:03;99477.28;;;8.26;100.00
55610;BME280;41486;52.502;13.486;2024-03-29T07:19:31;99499.81;;;8.38;100.00
55610;BME280;41486;52.502;13.486;2024-03-29T07:21:58;99502.44;;;8.59;100.00
55610;BME280;41486;52.502;13.486;2024-03-29T07:24:27;99514.91;;;8.46;100.00
55610;BME280;41486;52.502;13.486;2024-03-29T07:26:54;99527.91;;;8.47;100.00
55610;BME280;41486;52.502;13.486;2024-03-29T07:29:21;99543.81;;;8.56;100.00
55610;BME280;41486;52.502;13.486;2024-03-29T07:31:49;99542.59;;;8.60;100.00
55610;BME280;41486;52.502;13.486;2024-03-29T07:34:17;99531.72;;;8.64;100.00
55610;BME280;41486;52.502;13.486;2024-03-29T07:36:43;99527.22;;;8.76;100.00
55610;BME280;41486;52.502;13.486;2024-03-29T07:39:10;99525.63;;;8.64;100.00
55610;BME280;41486;52.502;13.486;2024-03-29T07:41:37;99527.31;;;8.65;100.00
55610;BME280;41486;52.502;13.486;2024-03-29T07:44:04;99532.72;;;8.83;100.00
55610;BME280;41486;52.502;13.486;2024-03-29T07:46:34;99542.72;;;8.89;100.00
55610;BME280;41486;52.502;13.486;2024-03-29T07:49:04;99531.78;;;8.84;100.00
55610;BME280;41486;52.502;13.486;2024-03-29T07:51:31;99530.84;;;8.95;100.00
55610;BME280;41486;52.502;13.486;2024-03-29T07:53:58;99535.25;;;8.94;100.00
55610;BME280;41486;52.502;13.486;2024-03-29T07:56:25;99536.38;;;9.02;100.00
55610;BME280;41486;52.502;13.486;2024-03-29T07:58:53;99544.72;;;9.17;100.00
55610;BME280;41486;52.502;13.486;2024-03-29T08:01:21;99549.56;;;9.21;100.00
55610;BME280;41486;52.502;13.486;2024-03-29T08:03:50;99556.88;;;9.27;96.50
55610;BME280;41486;52.502;13.486;2024-03-29T08:06:20;99563.09;;;9.36;96.72
55610;BME280;41486;52.502;13.486;2024-03-29T08:08:49;99563.41;;;9.43;92.99
55610;BME280;41486;52.502;13.486;2024-03-29T08:11:16;99580.28;;;9.50;94.50
55610;BME280;41486;52.502;13.486;2024-03-29T08:13:43;99566.72;;;9.55;92.78
55610;BME280;41486;52.502;13.486;2024-03-29T08:16:11;99570.06;;;9.57;90.80
55610;BME280;41486;52.502;13.486;2024-03-29T08:18:39;99580.00;;;9.63;91.08
55610;BME280;41486;52.502;13.486;2024-03-29T08:21:07;99567.28;;;9.68;92.61
55610;BME280;41486;52.502;13.486;2024-03-29T08:23:40;99562.56;;;9.72;93.96
55610;BME280;41486;52.502;13.486;2024-03-29T08:26:07;99563.00;;;9.77;94.75
55610;BME280;41486;52.502;13.486;2024-03-29T08:28:34;99556.66;;;9.79;96.69
55610;BME280;41486;52.502;13.486;2024-03-29T08:31:05;99566.03;;;9.92;95.29
55610;BME280;41486;52.502;13.486;2024-03-29T08:33:33;99553.88;;;10.01;92.94
55610;BME280;41486;52.502;13.486;2024-03-29T08:36:04;99539.19;;;9.98;95.99
55610;BME280;41486;52.502;13.486;2024-03-29T08:38:31;99525.19;;;10.07;98.88
55610;BME280;41486;52.502;13.486;2024-03-29T08:40:59;99509.84;;;10.13;99.06
55610;BME280;41486;52.502;13.486;2024-03-29T08:43:27;99507.06;;;10.14;100.00
55610;BME280;41486;52.502;13.486;2024-03-29T08:45:54;99490.88;;;10.19;100.00
55610;BME280;41486;52.502;13.486;2024-03-29T08:48:23;99491.84;;;10.18;100.00
55610;BME280;41486;52.502;13.486;2024-03-29T08:50:50;99506.34;;;10.32;100.00
55610;BME280;41486;52.502;13.486;2024-03-29T08:53:17;99522.66;;;10.35;100.00
55610;BME280;41486;52.502;13.486;2024-03-29T08:55:46;99534.38;;;10.51;100.00
55610;BME280;41486;52.502;13.486;2024-03-29T08:58:15;99540.44;;;10.61;100.00
55610;BME280;41486;52.502;13.486;2024-03-29T09:00:54;99533.91;;;10.65;98.27
55610;BME280;41486;52.502;13.486;2024-03-29T09:03:22;99540.19;;;10.82;97.17
55610;BME280;41486;52.502;13.486;2024-03-29T09:05:50;99540.38;;;10.99;91.14
55610;BME280;41486;52.502;13.486;2024-03-29T09:08:17;99536.78;;;11.00;92.88
55610;BME280;41486;52.502;13.486;2024-03-29T09:10:44;99545.38;;;11.02;90.90
55610;BME280;41486;52.502;13.486;2024-03-29T09:13:12;99548.63;;;11.14;95.33
55610;BME280;41486;52.502;13.486;2024-03-29T09:15:40;99548.13;;;11.28;93.12
55610;BME280;41486;52.502;13.486;2024-03-29T09:18:08;99552.03;;;11.42;91.49
55610;BME280;41486;52.502;13.486;2024-03-29T09:20:43;99544.97;;;11.61;87.22
55610;BME280;41486;52.502;13.486;2024-03-29T09:23:11;99561.44;;;11.63;85.62
55610;BME280;41486;52.502;13.486;2024-03-29T09:25:45;99553.84;;;11.78;83.03
55610;BME280;41486;52.502;13.486;2024-03-29T09:28:12;99546.75;;;11.78;79.89
55610;BME280;41486;52.502;13.486;2024-03-29T09:30:41;99557.16;;;11.98;78.75
55610;BME280;41486;52.502;13.486;2024-03-29T09:33:08;99553.16;;;11.76;79.61
55610;BME280;41486;52.502;13.486;2024-03-29T09:35:36;99551.06;;;11.79;77.23
55610;BME280;41486;52.502;13.486;2024-03-29T09:38:04;99556.19;;;11.99;74.86
55610;BME280;41486;52.502;13.486;2024-03-29T09:40:31;99553.28;;;11.92;75.25
55610;BME280;41486;52.502;13.486;2024-03-29T09:43:00;99552.63;;;12.08;75.64
55610;BME280;41486;52.502;13.486;2024-03-29T09:45:30;99559.69;;;12.08;75.78
55610;BME280;41486;52.502;13.486;2024-03-29T09:48:04;99574.53;;;12.09;73.07
55610;BME280;41486;52.502;13.486;2024-03-29T09:50:32;99574.72;;;12.34;70.00
55610;BME280;41486;52.502;13.486;2024-03-29T09:53:01;99582.06;;;12.48;65.62
55610;BME280;41486;52.502;13.486;2024-03-29T09:55:29;99577.56;;;12.40;65.71
55610;BME280;41486;52.502;13.486;2024-03-29T09:57:57;99572.19;;;12.24;67.97
55610;BME280;41486;52.502;13.486;2024-03-29T10:00:27;99566.19;;;12.13;67.83
55610;BME280;41486;52.502;13.486;2024-03-29T10:02:56;99563.31;;;12.25;68.02
55610;BME280;41486;52.502;13.486;2024-03-29T10:05:26;99570.22;;;12.52;67.42
55610;BME280;41486;52.502;13.486;2024-03-29T10:07:54;99560.91;;;12.40;67.23
55610;BME280;41486;52.502;13.486;2024-03-29T10:10:22;99558.00;;;12.51;67.47
55610;BME280;41486;52.502;13.486;2024-03-29T10:12:50;99560.38;;;12.36;70.96
55610;BME280;41486;52.502;13.486;2024-03-29T10:15:17;99555.31;;;12.43;69.60
55610;BME280;41486;52.502;13.486;2024-03-29T10:17:47;99557.97;;;12.43;71.71
55610;BME280;41486;52.502;13.486;2024-03-29T10:20:19;99560.44;;;12.18;68.62
55610;BME280;41486;52.502;13.486;2024-03-29T10:22:49;99556.66;;;12.21;71.21
55610;BME280;41486;52.502;13.486;2024-03-29T10:25:17;99558.03;;;12.07;74.90
55610;BME280;41486;52.502;13.486;2024-03-29T10:27:47;99547.94;;;12.02;78.88
55610;BME280;41486;52.502;13.486;2024-03-29T10:30:14;99552.88;;;11.79;81.04
55610;BME280;41486;52.502;13.486;2024-03-29T10:32:45;99531.56;;;11.54;83.81
55610;BME280;41486;52.502;13.486;2024-03-29T10:35:12;99540.16;;;11.56;84.36
55610;BME280;41486;52.502;13.486;2024-03-29T10:37:41;99512.09;;;11.47;86.20
55610;BME280;41486;52.502;13.486;2024-03-29T10:40:14;99509.59;;;11.63;87.64
55610;BME280;41486;52.502;13.486;2024-03-29T10:42:43;99507.25;;;11.60;86.14
55610;BME280;41486;52.502;13.486;2024-03-29T10:45:10;99506.34;;;11.70;90.36
55610;BME280;41486;52.502;13.486;2024-03-29T10:47:38;99515.19;;;11.87;86.34
55610;BME280;41486;52.502;13.486;2024-03-29T10:50:08;99509.84;;;11.78;90.22
55610;BME280;41486;52.502;13.486;2024-03-29T10:52:38;99509.72;;;11.62;91.65
55610;BME280;41486;52.502;13.486;2024-03-29T10:55:08;99505.03;;;11.74;94.48
55610;BME280;41486;52.502;13.486;2024-03-29T10:57:40;99507.53;;;11.75;95.15
55610;BME280;41486;52.502;13.486;2024-03-29T11:00:11;99502.63;;;11.80;94.74
55610;BME280;41486;52.502;13.486;2024-03-29T11:02:48;99506.97;;;11.90;95.90
55610;BME280;41486;52.502;13.486;2024-03-29T11:05:16;99503.69;;;12.14;95.96
55610;BME280;41486;52.502;13.486;2024-03-29T11:07:45;99486.81;;;12.25;99.12
55610;BME280;41486;52.502;13.486;2024-03-29T11:10:15;99467.91;;;12.38;96.22
55610;BME280;41486;52.502;13.486;2024-03-29T11:12:57;99466.56;;;12.34;93.42
55610;BME280;41486;52.502;13.486;2024-03-29T11:15:28;99470.50;;;12.64;94.74
55610;BME280;41486;52.502;13.486;2024-03-29T11:17:56;99457.66;;;12.77;93.86
55610;BME280;41486;52.502;13.486;2024-03-29T11:20:25;99465.25;;;12.81;86.72
55610;BME280;41486;52.502;13.486;2024-03-29T11:23:05;99469.94;;;13.03;88.19
55610;BME280;41486;52.502;13.486;2024-03-29T11:25:40;99456.91;;;13.18;89.21
55610;BME280;41486;52.502;13.486;2024-03-29T11:28:11;99441.88;;;13.10;86.52
55610;BME280;41486;52.502;13.486;2024-03-29T11:30:40;99433.66;;;13.47;84.49
55610;BME280;41486;52.502;13.486;2024-03-29T11:33:08;99433.34;;;13.58;83.51
55610;BME280;41486;52.502;13.486;2024-03-29T11:35:50;99441.59;;;13.47;79.98
55610;BME280;41486;52.502;13.486;2024-03-29T11:38:17;99438.78;;;13.48;80.16
55610;BME280;41486;52.502;13.486;2024-03-29T11:40:53;99440.59;;;13.48;79.04
55610;BME280;41486;52.502;13.486;2024-03-29T11:43:22;99436.25;;;13.30;79.80
55610;BME280;41486;52.502;13.486;2024-03-29T11:45:49;99435.75;;;13.10;76.61
55610;BME280;41486;52.502;13.486;2024-03-29T11:48:23;99435.25;;;13.06;79.23
55610;BME280;41486;52.502;13.486;2024-03-29T11:50:51;99427.81;;;12.77;79.33
55610;BME280;41486;52.502;13.486;2024-03-29T11:53:18;99439.41;;;13.01;78.85
55610;BME280;41486;52.502;13.486;2024-03-29T11:55:46;99442.34;;;12.98;78.43
55610;BME280;41486;52.502;13.486;2024-03-29T11:58:14;99451.09;;;12.98;78.48
55610;BME280;41486;52.502;13.486;2024-03-29T12:00:43;99457.53;;;13.04;78.21
55610;BME280;41486;52.502;13.486;2024-03-29T12:03:12;99450.09;;;12.91;82.07
55610;BME280;41486;52.502;13.486;2024-03-29T12:05:40;99461.25;;;12.68;86.85
55610;BME280;41486;52.502;13.486;2024-03-29T12:08:07;99469.31;;;12.58;90.40
55610;BME280;41486;52.502;13.486;2024-03-29T12:10:37;99461.94;;;12.70;92.62
55610;BME280;41486;52.502;13.486;2024-03-29T12:13:07;99465.53;;;12.61;90.56
55610;BME280;41486;52.502;13.486;2024-03-29T12:15:34;99459.94;;;12.64;93.98
55610;BME280;41486;52.502;13.486;2024-03-29T12:18:04;99459.00;;;12.82;91.43
55610;BME280;41486;52.502;13.486;2024-03-29T12:20:31;99456.22;;;13.00;90.80
55610;BME280;41486;52.502;13.486;2024-03-29T12:22:59;99462.81;;;13.04;89.79
55610;BME280;41486;52.502;13.486;2024-03-29T12:25:27;99451.28;;;13.13;88.62
55610;BME280;41486;52.502;13.486;2024-03-29T12:27:54;99449.16;;;13.33;90.81
55610;BME280;41486;52.502;13.486;2024-03-29T12:30:22;99448.03;;;13.44;81.51
55610;BME280;41486;52.502;13.486;2024-03-29T12:33:00;99425.22;;;13.51;80.96
55610;BME280;41486;52.502;13.486;2024-03-29T12:35:29;99409.88;;;13.55;82.02
55610;BME280;41486;52.502;13.486;2024-03-29T12:37:58;99389.53;;;13.64;77.69
55610;BME280;41486;52.502;13.486;2024-03-29T12:40:26;99386.03;;;13.80;78.94
55610;BME280;41486;52.502;13.486;2024-03-29T12:42:56;99380.69;;;13.96;73.20
55610;BME280;41486;52.502;13.486;2024-03-29T12:45:24;99383.75;;;14.16;71.62
55610;BME280;41486;52.502;13.486;2024-03-29T12:47:53;99392.88;;;15.08;66.09
55610;BME280;41486;52.502;13.486;2024-03-29T12:50:25;99390.00;;;16.01;61.01
55610;BME280;41486;52.502;13.486;2024-03-29T12:52:56;99397.94;;;15.71;59.55
55610;BME280;41486;52.502;13.486;2024-03-29T12:55:24;99395.25;;;16.61;58.51